sensor_id;sensor_type;location;lat;lon;timestamp;P1;durP1;ratioP1;P2;durP2;ratioP2
76964;SDS011;65903;51.452;7.198;2024-02-21T00:00:22;13.55;;;7.07;;
76964;SDS011;65903;51.452;7.198;2024-02-21T00:01:23;19.83;;;7.35;;
76964;SDS011;65903;51.452;7.198;2024-02-21T00:02:24;17.30;;;8.23;;
76964;SDS011;65903;51.452;7.198;2024-02-21T00:03:24;19.70;;;8.40;;
76964;SDS011;65903;51.452;7.198;2024-02-21T00:04:25;18.23;;;7.68;;
76964;SDS011;65903;51.452;7.198;2024-02-21T00:05:25;20.95;;;7.85;;
76964;SDS011;65903;51.452;7.198;2024-02-21T00:06:26;18.08;;;7.90;;
76964;SDS011;65903;51.452;7.198;2024-02-21T00:07:26;19.83;;;8.13;;
76964;SDS011;65903;51.452;7.198;2024-02-21T00:08:27;23.15;;;9.27;;
76964;SDS011;65903;51.452;7.198;2024-02-21T00:09:27;23.45;;;9.45;;
76964;SDS011;65903;51.452;7.198;2024-02-21T00:10:28;18.33;;;8.50;;
76964;SDS011;65903;51.452;7.198;2024-02-21T00:11:29;18.95;;;8.95;;
76964;SDS011;65903;51.452;7.198;2024-02-21T00:12:29;22.27;;;9.63;;
76964;SDS011;65903;51.452;7.198;2024-02-21T00:13:30;16.25;;;8.23;;
76964;SDS011;65903;51.452;7.198;2024-02-21T00:14:30;16.02;;;7.97;;
76964;SDS011;65903;51.452;7.198;2024-02-21T00:15:31;22.95;;;10.95;;
76964;SDS011;65903;51.452;7.198;2024-02-21T00:16:32;17.25;;;6.75;;
76964;SDS011;65903;51.452;7.198;2024-02-21T00:17:32;20.02;;;9.00;;
76964;SDS011;65903;51.452;7.198;2024-02-21T00:18:33;17.55;;;8.10;;
76964;SDS011;65903;51.452;7.198;2024-02-21T00:19:33;17.15;;;7.85;;
76964;SDS011;65903;51.452;7.198;2024-02-21T00:20:34;21.67;;;8.57;;
76964;SDS011;65903;51.452;7.198;2024-02-21T00:21:35;21.20;;;8.35;;
76964;SDS011;65903;51.452;7.198;2024-02-21T00:22:35;16.85;;;7.57;;
76964;SDS011;65903;51.452;7.198;2024-02-21T00:23:36;18.83;;;8.52;;
76964;SDS011;65903;51.452;7.198;2024-02-21T00:24:36;17.17;;;8.55;;
76964;SDS011;65903;51.452;7.198;2024-02-21T00:25:37;19.90;;;8.07;;
76964;SDS011;65903;51.452;7.198;2024-02-21T00:26:37;18.35;;;7.10;;
76964;SDS011;65903;51.452;7.198;2024-02-21T00:27:38;24.88;;;8.60;;
76964;SDS011;65903;51.452;7.198;2024-02-21T00:28:41;16.67;;;7.90;;
76964;SDS011;65903;51.452;7.198;2024-02-21T00:29:42;21.38;;;8.73;;
76964;SDS011;65903;51.452;7.198;2024-02-21T00:30:43;20.00;;;8.60;;
76964;SDS011;65903;51.452;7.198;2024-02-21T00:31:43;16.30;;;8.30;;
76964;SDS011;65903;51.452;7.198;2024-02-21T00:32:45;17.50;;;8.40;;
76964;SDS011;65903;51.452;7.198;2024-02-21T00:33:45;20.70;;;8.38;;
76964;SDS011;65903;51.452;7.198;2024-02-21T00:34:46;19.92;;;8.70;;
76964;SDS011;65903;51.452;7.198;2024-02-21T00:35:46;18.58;;;7.43;;
76964;SDS011;65903;51.452;7.198;2024-02-21T00:36:47;21.27;;;8.48;;
76964;SDS011;65903;51.452;7.198;2024-02-21T00:37:47;24.40;;;9.45;;
76964;SDS011;65903;51.452;7.198;2024-02-21T00:38:48;22.92;;;8.63;;
76964;SDS011;65903;51.452;7.198;2024-02-21T00:39:48;20.80;;;7.80;;
76964;SDS011;65903;51.452;7.198;2024-02-21T00:40:49;17.75;;;8.43;;
76964;SDS011;65903;51.452;7.198;2024-02-21T00:41:49;21.13;;;8.68;;
76964;SDS011;65903;51.452;7.198;2024-02-21T00:42:50;18.27;;;7.80;;
76964;SDS011;65903;51.452;7.198;2024-02-21T00:43:50;18.00;;;8.27;;
76964;SDS011;65903;51.452;7.198;2024-02-21T00:44:50;19.63;;;8.50;;
76964;SDS011;65903;51.452;7.198;2024-02-21T00:45:51;18.75;;;8.52;;
76964;SDS011;65903;51.452;7.198;2024-02-21T00:46:51;17.55;;;8.20;;
76964;SDS011;65903;51.452;7.198;2024-02-21T00:47:52;20.85;;;8.68;;
76964;SDS011;65903;51.452;7.198;2024-02-21T00:48:53;19.90;;;7.95;;
76964;SDS011;65903;51.452;7.198;2024-02-21T00:49:53;18.95;;;8.43;;
76964;SDS011;65903;51.452;7.198;2024-02-21T00:50:53;18.23;;;8.00;;
76964;SDS011;65903;51.452;7.198;2024-02-21T00:51:54;17.95;;;9.18;;
76964;SDS011;65903;51.452;7.198;2024-02-21T00:52:54;19.60;;;8.07;;
76964;SDS011;65903;51.452;7.198;2024-02-21T00:53:55;18.90;;;9.60;;
76964;SDS011;65903;51.452;7.198;2024-02-21T00:54:55;22.02;;;7.82;;
76964;SDS011;65903;51.452;7.198;2024-02-21T00:55:56;18.17;;;8.57;;
76964;SDS011;65903;51.452;7.198;2024-02-21T00:56:57;21.75;;;8.70;;
76964;SDS011;65903;51.452;7.198;2024-02-21T00:57:57;21.52;;;8.32;;
76964;SDS011;65903;51.452;7.198;2024-02-21T00:58:58;22.05;;;9.30;;
76964;SDS011;65903;51.452;7.198;2024-02-21T00:59:58;28.08;;;8.93;;
76964;SDS011;65903;51.452;7.198;2024-02-21T01:01:00;17.00;;;7.70;;
76964;SDS011;65903;51.452;7.198;2024-02-21T01:02:00;20.33;;;8.30;;
76964;SDS011;65903;51.452;7.198;2024-02-21T01:03:01;21.83;;;8.32;;
76964;SDS011;65903;51.452;7.198;2024-02-21T01:04:02;21.35;;;8.50;;
76964;SDS011;65903;51.452;7.198;2024-02-21T01:05:02;20.63;;;8.00;;
76964;SDS011;65903;51.452;7.198;2024-02-21T01:06:03;20.83;;;7.75;;
76964;SDS011;65903;51.452;7.198;2024-02-21T01:07:03;24.77;;;8.63;;
76964;SDS011;65903;51.452;7.198;2024-02-21T01:08:04;19.92;;;8.48;;
76964;SDS011;65903;51.452;7.198;2024-02-21T01:09:04;16.42;;;7.93;;
76964;SDS011;65903;51.452;7.198;2024-02-21T01:10:05;21.05;;;8.43;;
76964;SDS011;65903;51.452;7.198;2024-02-21T01:11:06;16.85;;;7.85;;
76964;SDS011;65903;51.452;7.198;2024-02-21T01:12:06;21.52;;;8.10;;
76964;SDS011;65903;51.452;7.198;2024-02-21T01:13:07;20.67;;;8.48;;
76964;SDS011;65903;51.452;7.198;2024-02-21T01:14:07;19.10;;;9.43;;
76964;SDS011;65903;51.452;7.198;2024-02-21T01:15:08;19.13;;;9.25;;
76964;SDS011;65903;51.452;7.198;2024-02-21T01:16:09;18.30;;;7.95;;
76964;SDS011;65903;51.452;7.198;2024-02-21T01:17:10;21.15;;;8.85;;
76964;SDS011;65903;51.452;7.198;2024-02-21T01:18:10;18.00;;;8.43;;
76964;SDS011;65903;51.452;7.198;2024-02-21T01:19:10;19.65;;;7.90;;
76964;SDS011;65903;51.452;7.198;2024-02-21T01:20:11;20.55;;;8.23;;
76964;SDS011;65903;51.452;7.198;2024-02-21T01:21:11;17.95;;;8.50;;
76964;SDS011;65903;51.452;7.198;2024-02-21T01:22:11;21.40;;;8.80;;
76964;SDS011;65903;51.452;7.198;2024-02-21T01:23:12;19.45;;;8.50;;
76964;SDS011;65903;51.452;7.198;2024-02-21T01:24:13;20.30;;;8.52;;
76964;SDS011;65903;51.452;7.198;2024-02-21T01:25:14;21.83;;;8.10;;
76964;SDS011;65903;51.452;7.198;2024-02-21T01:26:15;19.58;;;8.70;;
76964;SDS011;65903;51.452;7.198;2024-02-21T01:27:15;19.48;;;7.90;;
76964;SDS011;65903;51.452;7.198;2024-02-21T01:28:17;28.65;;;9.50;;
76964;SDS011;65903;51.452;7.198;2024-02-21T01:29:18;17.42;;;8.13;;
76964;SDS011;65903;51.452;7.198;2024-02-21T01:30:18;15.68;;;8.43;;
76964;SDS011;65903;51.452;7.198;2024-02-21T01:31:19;16.05;;;8.18;;
76964;SDS011;65903;51.452;7.198;2024-02-21T01:32:21;19.80;;;8.57;;
76964;SDS011;65903;51.452;7.198;2024-02-21T01:33:22;19.80;;;8.88;;
76964;SDS011;65903;51.452;7.198;2024-02-21T01:34:22;20.23;;;9.45;;
76964;SDS011;65903;51.452;7.198;2024-02-21T01:35:22;16.17;;;7.20;;
76964;SDS011;65903;51.452;7.198;2024-02-21T01:36:23;19.85;;;8.52;;
76964;SDS011;65903;51.452;7.198;2024-02-21T01:37:23;19.30;;;8.18;;
76964;SDS011;65903;51.452;7.198;2024-02-21T01:38:24;20.35;;;8.27;;
76964;SDS011;65903;51.452;7.198;2024-02-21T01:39:24;17.35;;;7.95;;
76964;SDS011;65903;51.452;7.198;2024-02-21T01:40:25;16.92;;;8.85;;
76964;SDS011;65903;51.452;7.198;2024-02-21T01:41:26;18.20;;;8.98;;
76964;SDS011;65903;51.452;7.198;2024-02-21T01:42:26;20.88;;;8.52;;
76964;SDS011;65903;51.452;7.198;2024-02-21T01:43:27;19.83;;;8.77;;
76964;SDS011;65903;51.452;7.198;2024-02-21T01:44:27;19.27;;;9.13;;
76964;SDS011;65903;51.452;7.198;2024-02-21T01:45:28;20.38;;;7.78;;
76964;SDS011;65903;51.452;7.198;2024-02-21T01:46:28;16.00;;;8.60;;
76964;SDS011;65903;51.452;7.198;2024-02-21T01:47:31;20.20;;;8.13;;
76964;SDS011;65903;51.452;7.198;2024-02-21T01:48:31;20.80;;;9.07;;
76964;SDS011;65903;51.452;7.198;2024-02-21T01:49:32;22.95;;;8.32;;
76964;SDS011;65903;51.452;7.198;2024-02-21T01:50:32;17.38;;;8.13;;
76964;SDS011;65903;51.452;7.198;2024-02-21T01:51:33;19.65;;;8.65;;
76964;SDS011;65903;51.452;7.198;2024-02-21T01:52:34;17.90;;;8.60;;
76964;SDS011;65903;51.452;7.198;2024-02-21T01:53:40;20.83;;;8.38;;
76964;SDS011;65903;51.452;7.198;2024-02-21T01:54:43;19.33;;;8.40;;
76964;SDS011;65903;51.452;7.198;2024-02-21T01:55:47;19.90;;;8.13;;
76964;SDS011;65903;51.452;7.198;2024-02-21T01:56:47;14.70;;;7.78;;
76964;SDS011;65903;51.452;7.198;2024-02-21T01:57:48;22.85;;;8.70;;
76964;SDS011;65903;51.452;7.198;2024-02-21T01:58:49;15.30;;;6.35;;
76964;SDS011;65903;51.452;7.198;2024-02-21T01:59:50;19.40;;;8.90;;
76964;SDS011;65903;51.452;7.198;2024-02-21T02:00:50;17.95;;;9.43;;
76964;SDS011;65903;51.452;7.198;2024-02-21T02:01:51;17.13;;;7.80;;
76964;SDS011;65903;51.452;7.198;2024-02-21T02:02:53;22.38;;;8.52;;
76964;SDS011;65903;51.452;7.198;2024-02-21T02:03:54;17.73;;;8.07;;
76964;SDS011;65903;51.452;7.198;2024-02-21T02:04:55;15.15;;;8.20;;
76964;SDS011;65903;51.452;7.198;2024-02-21T02:05:56;17.33;;;7.88;;
76964;SDS011;65903;51.452;7.198;2024-02-21T02:06:57;16.10;;;9.10;;
76964;SDS011;65903;51.452;7.198;2024-02-21T02:08:00;20.92;;;8.98;;
76964;SDS011;65903;51.452;7.198;2024-02-21T02:09:00;18.50;;;8.60;;
76964;SDS011;65903;51.452;7.198;2024-02-21T02:10:01;19.65;;;8.75;;
76964;SDS011;65903;51.452;7.198;2024-02-21T02:11:02;15.18;;;9.55;;
76964;SDS011;65903;51.452;7.198;2024-02-21T02:12:02;18.75;;;8.30;;
76964;SDS011;65903;51.452;7.198;2024-02-21T02:13:03;18.80;;;8.25;;
76964;SDS011;65903;51.452;7.198;2024-02-21T02:14:04;16.10;;;8.40;;
76964;SDS011;65903;51.452;7.198;2024-02-21T02:15:04;19.85;;;8.40;;
76964;SDS011;65903;51.452;7.198;2024-02-21T02:16:05;17.15;;;7.93;;
76964;SDS011;65903;51.452;7.198;2024-02-21T02:17:06;20.42;;;9.40;;
76964;SDS011;65903;51.452;7.198;2024-02-21T02:18:06;15.80;;;7.95;;
76964;SDS011;65903;51.452;7.198;2024-02-21T02:19:07;21.33;;;9.00;;
76964;SDS011;65903;51.452;7.198;2024-02-21T02:20:07;19.95;;;8.30;;
76964;SDS011;65903;51.452;7.198;2024-02-21T02:21:10;18.30;;;8.80;;
76964;SDS011;65903;51.452;7.198;2024-02-21T02:22:14;18.70;;;7.93;;
76964;SDS011;65903;51.452;7.198;2024-02-21T02:24:20;19.10;;;8.23;;
76964;SDS011;65903;51.452;7.198;2024-02-21T02:25:21;22.95;;;9.57;;
76964;SDS011;65903;51.452;7.198;2024-02-21T02:26:21;20.77;;;8.48;;
76964;SDS011;65903;51.452;7.198;2024-02-21T02:27:22;20.25;;;8.15;;
76964;SDS011;65903;51.452;7.198;2024-02-21T02:28:23;18.60;;;8.40;;
76964;SDS011;65903;51.452;7.198;2024-02-21T02:29:24;17.02;;;8.48;;
76964;SDS011;65903;51.452;7.198;2024-02-21T02:30:24;18.88;;;8.00;;
76964;SDS011;65903;51.452;7.198;2024-02-21T02:31:25;21.92;;;8.75;;
76964;SDS011;65903;51.452;7.198;2024-02-21T02:32:25;18.05;;;8.35;;
76964;SDS011;65903;51.452;7.198;2024-02-21T02:33:26;17.30;;;8.68;;
76964;SDS011;65903;51.452;7.198;2024-02-21T02:34:26;16.90;;;8.43;;
76964;SDS011;65903;51.452;7.198;2024-02-21T02:35:27;21.23;;;9.68;;
76964;SDS011;65903;51.452;7.198;2024-02-21T02:36:27;20.23;;;9.38;;
76964;SDS011;65903;51.452;7.198;2024-02-21T02:37:28;23.73;;;8.70;;
76964;SDS011;65903;51.452;7.198;2024-02-21T02:38:29;19.08;;;8.75;;
76964;SDS011;65903;51.452;7.198;2024-02-21T02:39:29;19.17;;;8.40;;
76964;SDS011;65903;51.452;7.198;2024-02-21T02:40:33;18.33;;;8.38;;
76964;SDS011;65903;51.452;7.198;2024-02-21T02:41:35;15.60;;;7.50;;
76964;SDS011;65903;51.452;7.198;2024-02-21T02:42:35;18.75;;;7.57;;
76964;SDS011;65903;51.452;7.198;2024-02-21T02:43:36;21.58;;;9.45;;
76964;SDS011;65903;51.452;7.198;2024-02-21T02:44:40;19.40;;;8.85;;
76964;SDS011;65903;51.452;7.198;2024-02-21T02:45:40;19.40;;;8.27;;
76964;SDS011;65903;51.452;7.198;2024-02-21T02:46:41;20.73;;;8.13;;
76964;SDS011;65903;51.452;7.198;2024-02-21T02:47:41;19.13;;;8.93;;
76964;SDS011;65903;51.452;7.198;2024-02-21T02:48:42;18.83;;;8.60;;
76964;SDS011;65903;51.452;7.198;2024-02-21T02:49:42;19.25;;;7.95;;
76964;SDS011;65903;51.452;7.198;2024-02-21T02:50:44;13.52;;;7.70;;
76964;SDS011;65903;51.452;7.198;2024-02-21T02:51:46;21.75;;;8.93;;
76964;SDS011;65903;51.452;7.198;2024-02-21T02:52:46;18.48;;;8.57;;
76964;SDS011;65903;51.452;7.198;2024-02-21T02:53:47;15.73;;;7.88;;
76964;SDS011;65903;51.452;7.198;2024-02-21T02:54:47;20.45;;;7.95;;
76964;SDS011;65903;51.452;7.198;2024-02-21T02:55:52;16.40;;;7.72;;
76964;SDS011;65903;51.452;7.198;2024-02-21T02:56:52;19.40;;;7.85;;
76964;SDS011;65903;51.452;7.198;2024-02-21T02:57:53;14.70;;;7.88;;
76964;SDS011;65903;51.452;7.198;2024-02-21T02:58:53;19.10;;;8.52;;
76964;SDS011;65903;51.452;7.198;2024-02-21T02:59:54;19.98;;;9.02;;
76964;SDS011;65903;51.452;7.198;2024-02-21T03:00:55;19.60;;;8.95;;
76964;SDS011;65903;51.452;7.198;2024-02-21T03:01:55;17.67;;;8.25;;
76964;SDS011;65903;51.452;7.198;2024-02-21T03:02:56;17.52;;;8.02;;
76964;SDS011;65903;51.452;7.198;2024-02-21T03:03:56;16.67;;;8.63;;
76964;SDS011;65903;51.452;7.198;2024-02-21T03:04:57;22.88;;;8.75;;
76964;SDS011;65903;51.452;7.198;2024-02-21T03:05:57;16.95;;;7.75;;
76964;SDS011;65903;51.452;7.198;2024-02-21T03:06:58;17.92;;;8.82;;
76964;SDS011;65903;51.452;7.198;2024-02-21T03:07:59;17.00;;;9.43;;
76964;SDS011;65903;51.452;7.198;2024-02-21T03:08:59;19.08;;;9.40;;
76964;SDS011;65903;51.452;7.198;2024-02-21T03:10:00;22.92;;;8.98;;
76964;SDS011;65903;51.452;7.198;2024-02-21T03:11:00;17.85;;;8.43;;
76964;SDS011;65903;51.452;7.198;2024-02-21T03:12:01;18.30;;;9.57;;
76964;SDS011;65903;51.452;7.198;2024-02-21T03:13:04;19.75;;;8.57;;
76964;SDS011;65903;51.452;7.198;2024-02-21T03:14:05;20.58;;;8.02;;
76964;SDS011;65903;51.452;7.198;2024-02-21T03:15:05;16.23;;;7.97;;
76964;SDS011;65903;51.452;7.198;2024-02-21T03:16:06;17.02;;;8.45;;
76964;SDS011;65903;51.452;7.198;2024-02-21T03:17:07;14.40;;;7.80;;
76964;SDS011;65903;51.452;7.198;2024-02-21T03:18:07;19.55;;;8.88;;
76964;SDS011;65903;51.452;7.198;2024-02-21T03:19:08;13.10;;;7.72;;
76964;SDS011;65903;51.452;7.198;2024-02-21T03:20:08;16.35;;;7.38;;
76964;SDS011;65903;51.452;7.198;2024-02-21T03:21:10;17.50;;;8.52;;
76964;SDS011;65903;51.452;7.198;2024-02-21T03:22:10;19.10;;;7.80;;
76964;SDS011;65903;51.452;7.198;2024-02-21T03:23:11;18.80;;;8.32;;
76964;SDS011;65903;51.452;7.198;2024-02-21T03:24:11;17.42;;;7.80;;
76964;SDS011;65903;51.452;7.198;2024-02-21T03:25:12;18.08;;;7.38;;
76964;SDS011;65903;51.452;7.198;2024-02-21T03:26:14;17.83;;;7.50;;
76964;SDS011;65903;51.452;7.198;2024-02-21T03:27:17;13.90;;;8.13;;
76964;SDS011;65903;51.452;7.198;2024-02-21T03:28:18;13.80;;;7.13;;
76964;SDS011;65903;51.452;7.198;2024-02-21T03:29:18;16.33;;;8.32;;
76964;SDS011;65903;51.452;7.198;2024-02-21T03:30:19;19.02;;;7.78;;
76964;SDS011;65903;51.452;7.198;2024-02-21T03:31:19;16.98;;;8.20;;
76964;SDS011;65903;51.452;7.198;2024-02-21T03:32:20;13.70;;;7.50;;
76964;SDS011;65903;51.452;7.198;2024-02-21T03:33:20;15.13;;;7.90;;
76964;SDS011;65903;51.452;7.198;2024-02-21T03:34:23;19.85;;;8.77;;
76964;SDS011;65903;51.452;7.198;2024-02-21T03:35:23;17.83;;;8.35;;
76964;SDS011;65903;51.452;7.198;2024-02-21T03:36:26;14.48;;;7.30;;
76964;SDS011;65903;51.452;7.198;2024-02-21T03:37:27;15.40;;;7.82;;
76964;SDS011;65903;51.452;7.198;2024-02-21T03:38:28;18.85;;;7.57;;
76964;SDS011;65903;51.452;7.198;2024-02-21T03:39:32;15.30;;;8.00;;
76964;SDS011;65903;51.452;7.198;2024-02-21T03:40:33;15.30;;;6.72;;
76964;SDS011;65903;51.452;7.198;2024-02-21T03:41:33;19.35;;;7.57;;
76964;SDS011;65903;51.452;7.198;2024-02-21T03:42:34;16.38;;;7.85;;
76964;SDS011;65903;51.452;7.198;2024-02-21T03:43:34;20.73;;;8.68;;
76964;SDS011;65903;51.452;7.198;2024-02-21T03:44:35;21.02;;;8.95;;
76964;SDS011;65903;51.452;7.198;2024-02-21T03:45:35;18.48;;;7.90;;
76964;SDS011;65903;51.452;7.198;2024-02-21T03:46:36;18.02;;;7.72;;
76964;SDS011;65903;51.452;7.198;2024-02-21T03:47:36;20.88;;;7.63;;
76964;SDS011;65903;51.452;7.198;2024-02-21T03:48:37;15.98;;;8.07;;
76964;SDS011;65903;51.452;7.198;2024-02-21T03:49:37;18.45;;;7.40;;
76964;SDS011;65903;51.452;7.198;2024-02-21T03:50:38;14.73;;;7.13;;
76964;SDS011;65903;51.452;7.198;2024-02-21T03:51:38;13.98;;;7.22;;
76964;SDS011;65903;51.452;7.198;2024-02-21T03:52:39;16.67;;;7.90;;
76964;SDS011;65903;51.452;7.198;2024-02-21T03:53:39;14.93;;;8.15;;
76964;SDS011;65903;51.452;7.198;2024-02-21T03:54:40;17.95;;;8.00;;
76964;SDS011;65903;51.452;7.198;2024-02-21T03:55:40;16.20;;;7.65;;
76964;SDS011;65903;51.452;7.198;2024-02-21T03:56:41;17.70;;;8.25;;
76964;SDS011;65903;51.452;7.198;2024-02-21T03:57:42;20.17;;;7.30;;
76964;SDS011;65903;51.452;7.198;2024-02-21T03:58:42;17.58;;;7.10;;
76964;SDS011;65903;51.452;7.198;2024-02-21T03:59:43;14.65;;;7.30;;
76964;SDS011;65903;51.452;7.198;2024-02-21T04:00:43;13.75;;;7.65;;
76964;SDS011;65903;51.452;7.198;2024-02-21T04:01:44;16.27;;;7.93;;
76964;SDS011;65903;51.452;7.198;2024-02-21T04:02:44;17.23;;;7.32;;
76964;SDS011;65903;51.452;7.198;2024-02-21T04:03:45;16.92;;;7.22;;
76964;SDS011;65903;51.452;7.198;2024-02-21T04:04:45;15.48;;;7.53;;
76964;SDS011;65903;51.452;7.198;2024-02-21T04:05:47;12.30;;;5.75;;
76964;SDS011;65903;51.452;7.198;2024-02-21T04:06:51;16.85;;;7.95;;
76964;SDS011;65903;51.452;7.198;2024-02-21T04:07:53;17.60;;;8.43;;
76964;SDS011;65903;51.452;7.198;2024-02-21T04:08:54;18.83;;;8.55;;
76964;SDS011;65903;51.452;7.198;2024-02-21T04:09:57;14.25;;;7.78;;
76964;SDS011;65903;51.452;7.198;2024-02-21T04:10:58;18.70;;;8.20;;
76964;SDS011;65903;51.452;7.198;2024-02-21T04:11:59;17.70;;;7.63;;
76964;SDS011;65903;51.452;7.198;2024-02-21T04:13:00;16.67;;;7.68;;
76964;SDS011;65903;51.452;7.198;2024-02-21T04:14:00;17.60;;;7.18;;
76964;SDS011;65903;51.452;7.198;2024-02-21T04:15:01;19.27;;;8.07;;
76964;SDS011;65903;51.452;7.198;2024-02-21T04:16:01;15.13;;;7.78;;
76964;SDS011;65903;51.452;7.198;2024-02-21T04:17:03;17.15;;;7.45;;
76964;SDS011;65903;51.452;7.198;2024-02-21T04:18:05;15.73;;;7.32;;
76964;SDS011;65903;51.452;7.198;2024-02-21T04:19:06;16.33;;;9.43;;
76964;SDS011;65903;51.452;7.198;2024-02-21T04:20:13;15.13;;;7.70;;
76964;SDS011;65903;51.452;7.198;2024-02-21T04:21:14;18.27;;;7.57;;
76964;SDS011;65903;51.452;7.198;2024-02-21T04:22:15;13.43;;;7.65;;
76964;SDS011;65903;51.452;7.198;2024-02-21T04:23:16;14.52;;;8.15;;
76964;SDS011;65903;51.452;7.198;2024-02-21T04:24:16;16.95;;;8.32;;
76964;SDS011;65903;51.452;7.198;2024-02-21T04:25:17;17.65;;;8.20;;
76964;SDS011;65903;51.452;7.198;2024-02-21T04:26:17;16.42;;;7.40;;
76964;SDS011;65903;51.452;7.198;2024-02-21T04:27:18;17.35;;;7.93;;
76964;SDS011;65903;51.452;7.198;2024-02-21T04:28:19;20.38;;;7.70;;
76964;SDS011;65903;51.452;7.198;2024-02-21T04:29:19;21.80;;;7.88;;
76964;SDS011;65903;51.452;7.198;2024-02-21T04:30:20;17.38;;;7.03;;
76964;SDS011;65903;51.452;7.198;2024-02-21T04:31:20;13.90;;;7.80;;
76964;SDS011;65903;51.452;7.198;2024-02-21T04:32:21;15.38;;;6.93;;
76964;SDS011;65903;51.452;7.198;2024-02-21T04:33:21;16.27;;;6.88;;
76964;SDS011;65903;51.452;7.198;2024-02-21T04:34:22;17.60;;;7.85;;
76964;SDS011;65903;51.452;7.198;2024-02-21T04:35:22;12.73;;;6.88;;
76964;SDS011;65903;51.452;7.198;2024-02-21T04:36:23;18.92;;;7.25;;
76964;SDS011;65903;51.452;7.198;2024-02-21T04:37:23;19.80;;;7.60;;
76964;SDS011;65903;51.452;7.198;2024-02-21T04:38:24;15.55;;;7.45;;
76964;SDS011;65903;51.452;7.198;2024-02-21T04:39:24;13.90;;;6.80;;
76964;SDS011;65903;51.452;7.198;2024-02-21T04:40:25;16.52;;;8.02;;
76964;SDS011;65903;51.452;7.198;2024-02-21T04:41:26;13.05;;;7.50;;
76964;SDS011;65903;51.452;7.198;2024-02-21T04:42:26;17.38;;;7.35;;
76964;SDS011;65903;51.452;7.198;2024-02-21T04:43:27;16.10;;;7.63;;
76964;SDS011;65903;51.452;7.198;2024-02-21T04:44:27;13.77;;;5.68;;
76964;SDS011;65903;51.452;7.198;2024-02-21T04:45:28;16.00;;;7.45;;
76964;SDS011;65903;51.452;7.198;2024-02-21T04:46:29;12.90;;;6.47;;
76964;SDS011;65903;51.452;7.198;2024-02-21T04:47:29;12.13;;;6.05;;
76964;SDS011;65903;51.452;7.198;2024-02-21T04:48:30;15.02;;;6.63;;
76964;SDS011;65903;51.452;7.198;2024-02-21T04:49:30;16.67;;;6.50;;
76964;SDS011;65903;51.452;7.198;2024-02-21T04:50:31;15.73;;;6.20;;
76964;SDS011;65903;51.452;7.198;2024-02-21T04:51:31;15.05;;;6.20;;
76964;SDS011;65903;51.452;7.198;2024-02-21T04:52:32;12.57;;;6.88;;
76964;SDS011;65903;51.452;7.198;2024-02-21T04:53:32;11.80;;;6.82;;
76964;SDS011;65903;51.452;7.198;2024-02-21T04:54:32;13.38;;;6.43;;
76964;SDS011;65903;51.452;7.198;2024-02-21T04:55:33;14.20;;;7.20;;
76964;SDS011;65903;51.452;7.198;2024-02-21T04:56:34;16.60;;;6.68;;
76964;SDS011;65903;51.452;7.198;2024-02-21T04:57:34;16.63;;;6.70;;
76964;SDS011;65903;51.452;7.198;2024-02-21T04:58:37;11.93;;;6.78;;
76964;SDS011;65903;51.452;7.198;2024-02-21T04:59:38;15.68;;;6.25;;
76964;SDS011;65903;51.452;7.198;2024-02-21T05:00:38;17.00;;;7.03;;
76964;SDS011;65903;51.452;7.198;2024-02-21T05:01:39;15.75;;;6.40;;
76964;SDS011;65903;51.452;7.198;2024-02-21T05:02:39;14.15;;;6.45;;
76964;SDS011;65903;51.452;7.198;2024-02-21T05:03:40;15.70;;;7.75;;
76964;SDS011;65903;51.452;7.198;2024-02-21T05:04:42;12.23;;;6.78;;
76964;SDS011;65903;51.452;7.198;2024-02-21T05:05:42;13.52;;;6.35;;
76964;SDS011;65903;51.452;7.198;2024-02-21T05:06:44;11.77;;;6.57;;
76964;SDS011;65903;51.452;7.198;2024-02-21T05:07:44;15.63;;;7.63;;
76964;SDS011;65903;51.452;7.198;2024-02-21T05:08:45;17.30;;;6.65;;
76964;SDS011;65903;51.452;7.198;2024-02-21T05:09:46;18.73;;;7.03;;
76964;SDS011;65903;51.452;7.198;2024-02-21T05:10:46;14.23;;;6.05;;
76964;SDS011;65903;51.452;7.198;2024-02-21T05:11:47;14.65;;;6.85;;
76964;SDS011;65903;51.452;7.198;2024-02-21T05:12:48;14.40;;;6.65;;
76964;SDS011;65903;51.452;7.198;2024-02-21T05:13:48;17.40;;;6.80;;
76964;SDS011;65903;51.452;7.198;2024-02-21T05:14:49;14.32;;;6.05;;
76964;SDS011;65903;51.452;7.198;2024-02-21T05:15:49;13.40;;;6.95;;
76964;SDS011;65903;51.452;7.198;2024-02-21T05:16:50;13.40;;;5.68;;
76964;SDS011;65903;51.452;7.198;2024-02-21T05:17:51;11.68;;;5.10;;
76964;SDS011;65903;51.452;7.198;2024-02-21T05:18:51;15.43;;;6.50;;
76964;SDS011;65903;51.452;7.198;2024-02-21T05:19:52;17.08;;;6.78;;
76964;SDS011;65903;51.452;7.198;2024-02-21T05:20:52;12.95;;;5.80;;
76964;SDS011;65903;51.452;7.198;2024-02-21T05:21:53;15.20;;;5.90;;
76964;SDS011;65903;51.452;7.198;2024-02-21T05:22:53;12.02;;;6.40;;
76964;SDS011;65903;51.452;7.198;2024-02-21T05:23:54;15.43;;;6.07;;
76964;SDS011;65903;51.452;7.198;2024-02-21T05:24:54;12.13;;;6.10;;
76964;SDS011;65903;51.452;7.198;2024-02-21T05:25:55;15.07;;;7.18;;
76964;SDS011;65903;51.452;7.198;2024-02-21T05:26:56;11.07;;;5.65;;
76964;SDS011;65903;51.452;7.198;2024-02-21T05:27:56;10.35;;;5.00;;
76964;SDS011;65903;51.452;7.198;2024-02-21T05:29:01;13.75;;;6.10;;
76964;SDS011;65903;51.452;7.198;2024-02-21T05:30:03;11.80;;;5.95;;
76964;SDS011;65903;51.452;7.198;2024-02-21T05:31:03;9.10;;;5.00;;
76964;SDS011;65903;51.452;7.198;2024-02-21T05:32:04;8.57;;;5.03;;
76964;SDS011;65903;51.452;7.198;2024-02-21T05:33:07;11.32;;;6.22;;
76964;SDS011;65903;51.452;7.198;2024-02-21T05:34:08;9.68;;;6.00;;
76964;SDS011;65903;51.452;7.198;2024-02-21T05:35:09;13.20;;;6.40;;
76964;SDS011;65903;51.452;7.198;2024-02-21T05:36:09;12.57;;;6.43;;
76964;SDS011;65903;51.452;7.198;2024-02-21T05:37:10;13.38;;;7.03;;
76964;SDS011;65903;51.452;7.198;2024-02-21T05:38:10;10.63;;;5.93;;
76964;SDS011;65903;51.452;7.198;2024-02-21T05:39:12;14.23;;;6.07;;
76964;SDS011;65903;51.452;7.198;2024-02-21T05:40:13;10.48;;;5.68;;
76964;SDS011;65903;51.452;7.198;2024-02-21T05:41:14;11.75;;;6.18;;
76964;SDS011;65903;51.452;7.198;2024-02-21T05:42:14;15.02;;;5.93;;
76964;SDS011;65903;51.452;7.198;2024-02-21T05:43:14;19.33;;;7.22;;
76964;SDS011;65903;51.452;7.198;2024-02-21T05:44:15;15.13;;;6.05;;
76964;SDS011;65903;51.452;7.198;2024-02-21T05:45:15;12.80;;;5.90;;
76964;SDS011;65903;51.452;7.198;2024-02-21T05:46:18;11.10;;;6.28;;
76964;SDS011;65903;51.452;7.198;2024-02-21T05:47:19;12.27;;;6.05;;
76964;SDS011;65903;51.452;7.198;2024-02-21T05:48:21;11.80;;;6.68;;
76964;SDS011;65903;51.452;7.198;2024-02-21T05:49:22;13.60;;;5.97;;
76964;SDS011;65903;51.452;7.198;2024-02-21T05:50:22;12.40;;;6.20;;
76964;SDS011;65903;51.452;7.198;2024-02-21T05:51:24;14.18;;;6.70;;
76964;SDS011;65903;51.452;7.198;2024-02-21T05:52:24;12.38;;;6.10;;
76964;SDS011;65903;51.452;7.198;2024-02-21T05:53:25;13.30;;;6.05;;
76964;SDS011;65903;51.452;7.198;2024-02-21T05:54:25;15.35;;;5.90;;
76964;SDS011;65903;51.452;7.198;2024-02-21T05:55:26;13.98;;;6.68;;
76964;SDS011;65903;51.452;7.198;2024-02-21T05:56:28;13.48;;;6.25;;
76964;SDS011;65903;51.452;7.198;2024-02-21T05:57:28;14.27;;;5.70;;
76964;SDS011;65903;51.452;7.198;2024-02-21T05:58:29;11.18;;;5.68;;
76964;SDS011;65903;51.452;7.198;2024-02-21T05:59:31;13.77;;;5.65;;
76964;SDS011;65903;51.452;7.198;2024-02-21T06:00:32;11.38;;;5.32;;
76964;SDS011;65903;51.452;7.198;2024-02-21T06:01:33;9.40;;;5.03;;
76964;SDS011;65903;51.452;7.198;2024-02-21T06:02:33;12.85;;;5.82;;